sensor_id;sensor_type;location;lat;lon;timestamp;P1;durP1;ratioP1;P2;durP2;ratioP2
37051;SDS011;22964;52.272;13.356;2023-05-10T00:01:23;5.72;;;2.92;;
37051;SDS011;22964;52.272;13.356;2023-05-10T00:03:49;5.57;;;3.00;;
37051;SDS011;22964;52.272;13.356;2023-05-10T00:06:15;6.05;;;3.30;;
37051;SDS011;22964;52.272;13.356;2023-05-10T00:08:40;4.90;;;3.03;;
37051;SDS011;22964;52.272;13.356;2023-05-10T00:11:06;4.82;;;3.10;;
37051;SDS011;22964;52.272;13.356;2023-05-10T00:13:32;4.57;;;3.20;;
37051;SDS011;22964;52.272;13.356;2023-05-10T00:15:58;7.00;;;3.47;;
37051;SDS011;22964;52.272;13.356;2023-05-10T00:18:23;6.25;;;3.45;;
37051;SDS011;22964;52.272;13.356;2023-05-10T00:20:49;5.43;;;3.40;;
37051;SDS011;22964;52.272;13.356;2023-05-10T00:23:15;4.40;;;3.00;;
37051;SDS011;22964;52.272;13.356;2023-05-10T00:25:41;4.40;;;3.15;;
37051;SDS011;22964;52.272;13.356;2023-05-10T00:28:06;5.10;;;3.30;;
37051;SDS011;22964;52.272;13.356;2023-05-10T00:30:32;5.80;;;3.38;;
37051;SDS011;22964;52.272;13.356;2023-05-10T00:32:58;6.07;;;3.20;;
37051;SDS011;22964;52.272;13.356;2023-05-10T00:35:25;6.55;;;3.38;;
37051;SDS011;22964;52.272;13.356;2023-05-10T00:37:51;4.82;;;3.35;;
37051;SDS011;22964;52.272;13.356;2023-05-10T00:40:16;6.60;;;3.30;;
37051;SDS011;22964;52.272;13.356;2023-05-10T00:42:48;6.55;;;3.53;;
37051;SDS011;22964;52.272;13.356;2023-05-10T00:45:14;5.30;;;3.40;;
37051;SDS011;22964;52.272;13.356;2023-05-10T00:47:39;5.95;;;3.13;;
37051;SDS011;22964;52.272;13.356;2023-05-10T00:50:06;5.68;;;3.33;;
37051;SDS011;22964;52.272;13.356;2023-05-10T00:52:32;7.65;;;3.53;;
37051;SDS011;22964;52.272;13.356;2023-05-10T00:54:58;4.75;;;3.50;;
37051;SDS011;22964;52.272;13.356;2023-05-10T00:57:24;5.18;;;3.45;;
37051;SDS011;22964;52.272;13.356;2023-05-10T00:59:50;4.93;;;3.40;;
37051;SDS011;22964;52.272;13.356;2023-05-10T01:02:16;4.72;;;3.10;;
37051;SDS011;22964;52.272;13.356;2023-05-10T01:04:42;5.20;;;3.58;;
37051;SDS011;22964;52.272;13.356;2023-05-10T01:07:08;5.13;;;3.40;;
37051;SDS011;22964;52.272;13.356;2023-05-10T01:09:34;5.10;;;3.47;;
37051;SDS011;22964;52.272;13.356;2023-05-10T01:12:00;6.63;;;3.53;;
37051;SDS011;22964;52.272;13.356;2023-05-10T01:14:28;5.53;;;3.40;;
37051;SDS011;22964;52.272;13.356;2023-05-10T01:16:54;4.45;;;2.90;;
37051;SDS011;22964;52.272;13.356;2023-05-10T01:27:54;5.53;;;3.25;;
37051;SDS011;22964;52.272;13.356;2023-05-10T01:31:17;5.20;;;3.05;;
37051;SDS011;22964;52.272;13.356;2023-05-10T01:38:57;5.25;;;3.38;;
37051;SDS011;22964;52.272;13.356;2023-05-10T01:41:35;6.30;;;3.30;;
37051;SDS011;22964;52.272;13.356;2023-05-10T01:44:09;4.63;;;3.40;;
37051;SDS011;22964;52.272;13.356;2023-05-10T01:46:52;5.60;;;3.35;;
37051;SDS011;22964;52.272;13.356;2023-05-10T01:49:24;8.13;;;3.35;;
37051;SDS011;22964;52.272;13.356;2023-05-10T01:51:54;6.43;;;3.60;;
37051;SDS011;22964;52.272;13.356;2023-05-10T01:54:25;6.30;;;3.77;;
37051;SDS011;22964;52.272;13.356;2023-05-10T01:57:00;5.45;;;3.50;;
37051;SDS011;22964;52.272;13.356;2023-05-10T01:59:31;6.18;;;3.70;;
37051;SDS011;22964;52.272;13.356;2023-05-10T02:02:06;5.47;;;3.47;;
37051;SDS011;22964;52.272;13.356;2023-05-10T02:04:36;5.28;;;3.40;;
37051;SDS011;22964;52.272;13.356;2023-05-10T02:07:04;7.60;;;3.33;;
37051;SDS011;22964;52.272;13.356;2023-05-10T02:09:32;5.95;;;3.63;;
37051;SDS011;22964;52.272;13.356;2023-05-10T02:12:00;6.28;;;3.50;;
37051;SDS011;22964;52.272;13.356;2023-05-10T02:14:30;7.05;;;3.75;;
37051;SDS011;22964;52.272;13.356;2023-05-10T02:16:59;5.57;;;3.45;;
37051;SDS011;22964;52.272;13.356;2023-05-10T02:19:29;5.78;;;3.83;;
37051;SDS011;22964;52.272;13.356;2023-05-10T02:21:56;6.15;;;3.95;;
37051;SDS011;22964;52.272;13.356;2023-05-10T02:24:24;4.78;;;3.35;;
37051;SDS011;22964;52.272;13.356;2023-05-10T02:26:51;5.60;;;3.72;;
37051;SDS011;22964;52.272;13.356;2023-05-10T02:29:20;6.18;;;3.90;;
37051;SDS011;22964;52.272;13.356;2023-05-10T02:31:48;8.15;;;3.83;;
37051;SDS011;22964;52.272;13.356;2023-05-10T02:34:17;7.57;;;3.60;;
37051;SDS011;22964;52.272;13.356;2023-05-10T02:36:44;5.47;;;3.33;;
37051;SDS011;22964;52.272;13.356;2023-05-10T02:39:10;7.15;;;4.05;;
37051;SDS011;22964;52.272;13.356;2023-05-10T02:41:39;9.57;;;3.97;;
37051;SDS011;22964;52.272;13.356;2023-05-10T02:44:07;7.45;;;3.88;;
37051;SDS011;22964;52.272;13.356;2023-05-10T02:46:34;5.93;;;3.85;;
37051;SDS011;22964;52.272;13.356;2023-05-10T02:49:01;8.73;;;3.88;;
37051;SDS011;22964;52.272;13.356;2023-05-10T02:51:28;5.65;;;3.40;;
37051;SDS011;22964;52.272;13.356;2023-05-10T02:53:57;7.70;;;3.95;;
37051;SDS011;22964;52.272;13.356;2023-05-10T02:56:28;6.13;;;3.70;;
37051;SDS011;22964;52.272;13.356;2023-05-10T02:58:59;5.43;;;3.65;;
37051;SDS011;22964;52.272;13.356;2023-05-10T03:01:25;5.75;;;3.80;;
37051;SDS011;22964;52.272;13.356;2023-05-10T03:03:51;5.90;;;3.45;;
37051;SDS011;22964;52.272;13.356;2023-05-10T03:06:16;5.32;;;3.63;;
37051;SDS011;22964;52.272;13.356;2023-05-10T03:08:42;5.82;;;3.65;;
37051;SDS011;22964;52.272;13.356;2023-05-10T03:14:34;6.53;;;3.83;;
37051;SDS011;22964;52.272;13.356;2023-05-10T03:16:36;6.70;;;3.90;;
37051;SDS011;22964;52.272;13.356;2023-05-10T03:19:37;4.60;;;3.40;;
37051;SDS011;22964;52.272;13.356;2023-05-10T03:22:30;5.95;;;3.60;;
37051;SDS011;22964;52.272;13.356;2023-05-10T03:24:59;8.70;;;3.60;;
37051;SDS011;22964;52.272;13.356;2023-05-10T03:27:29;5.20;;;3.70;;
37051;SDS011;22964;52.272;13.356;2023-05-10T03:29:56;6.50;;;4.00;;
37051;SDS011;22964;52.272;13.356;2023-05-10T03:32:22;6.13;;;3.58;;
37051;SDS011;22964;52.272;13.356;2023-05-10T03:34:49;5.70;;;3.58;;
37051;SDS011;22964;52.272;13.356;2023-05-10T03:37:14;5.32;;;3.58;;
37051;SDS011;22964;52.272;13.356;2023-05-10T03:39:40;7.13;;;4.10;;
37051;SDS011;22964;52.272;13.356;2023-05-10T03:42:08;9.27;;;3.78;;
37051;SDS011;22964;52.272;13.356;2023-05-10T03:44:37;5.55;;;3.40;;
37051;SDS011;22964;52.272;13.356;2023-05-10T03:47:07;5.45;;;3.63;;
37051;SDS011;22964;52.272;13.356;2023-05-10T03:49:33;5.35;;;3.45;;
37051;SDS011;22964;52.272;13.356;2023-05-10T03:51:59;8.60;;;3.92;;
37051;SDS011;22964;52.272;13.356;2023-05-10T03:54:25;5.30;;;3.30;;
37051;SDS011;22964;52.272;13.356;2023-05-10T03:56:51;7.15;;;3.55;;
37051;SDS011;22964;52.272;13.356;2023-05-10T03:59:20;6.72;;;3.58;;
37051;SDS011;22964;52.272;13.356;2023-05-10T04:01:45;4.53;;;3.20;;
37051;SDS011;22964;52.272;13.356;2023-05-10T04:04:11;6.57;;;3.20;;
37051;SDS011;22964;52.272;13.356;2023-05-10T04:06:37;4.75;;;3.05;;
37051;SDS011;22964;52.272;13.356;2023-05-10T04:09:03;4.72;;;3.03;;
37051;SDS011;22964;52.272;13.356;2023-05-10T04:11:29;5.53;;;3.15;;
37051;SDS011;22964;52.272;13.356;2023-05-10T04:13:55;5.65;;;3.15;;
37051;SDS011;22964;52.272;13.356;2023-05-10T04:16:20;5.00;;;2.97;;
37051;SDS011;22964;52.272;13.356;2023-05-10T04:18:46;5.50;;;3.05;;
37051;SDS011;22964;52.272;13.356;2023-05-10T04:21:12;5.88;;;2.80;;
37051;SDS011;22964;52.272;13.356;2023-05-10T04:23:38;5.65;;;2.92;;
37051;SDS011;22964;52.272;13.356;2023-05-10T04:26:04;6.65;;;3.05;;
37051;SDS011;22964;52.272;13.356;2023-05-10T04:28:30;4.80;;;2.60;;
37051;SDS011;22964;52.272;13.356;2023-05-10T04:33:27;5.03;;;3.00;;
37051;SDS011;22964;52.272;13.356;2023-05-10T04:35:53;5.03;;;2.85;;
37051;SDS011;22964;52.272;13.356;2023-05-10T04:38:19;4.63;;;2.90;;
37051;SDS011;22964;52.272;13.356;2023-05-10T04:40:45;6.88;;;3.40;;
37051;SDS011;22964;52.272;13.356;2023-05-10T04:43:10;5.50;;;3.50;;
37051;SDS011;22964;52.272;13.356;2023-05-10T04:45:36;5.68;;;2.90;;
37051;SDS011;22964;52.272;13.356;2023-05-10T04:48:02;7.90;;;3.80;;
37051;SDS011;22964;52.272;13.356;2023-05-10T04:50:27;6.13;;;3.03;;
37051;SDS011;22964;52.272;13.356;2023-05-10T04:52:53;4.00;;;3.05;;
37051;SDS011;22964;52.272;13.356;2023-05-10T04:55:19;5.82;;;3.25;;
37051;SDS011;22964;52.272;13.356;2023-05-10T04:57:45;5.35;;;2.95;;
37051;SDS011;22964;52.272;13.356;2023-05-10T05:00:10;4.55;;;3.20;;
37051;SDS011;22964;52.272;13.356;2023-05-10T05:02:37;3.53;;;2.60;;
37051;SDS011;22964;52.272;13.356;2023-05-10T05:05:03;5.05;;;3.00;;
37051;SDS011;22964;52.272;13.356;2023-05-10T05:07:28;5.15;;;2.70;;
37051;SDS011;22964;52.272;13.356;2023-05-10T05:09:55;4.47;;;2.80;;
37051;SDS011;22964;52.272;13.356;2023-05-10T05:12:21;3.95;;;2.72;;
37051;SDS011;22964;52.272;13.356;2023-05-10T05:14:47;5.00;;;2.72;;
37051;SDS011;22964;52.272;13.356;2023-05-10T05:17:12;6.10;;;2.88;;
37051;SDS011;22964;52.272;13.356;2023-05-10T05:19:38;9.70;;;2.75;;
37051;SDS011;22964;52.272;13.356;2023-05-10T05:22:06;4.30;;;2.80;;
37051;SDS011;22964;52.272;13.356;2023-05-10T05:24:35;5.88;;;2.40;;
37051;SDS011;22964;52.272;13.356;2023-05-10T05:27:04;4.55;;;2.70;;
37051;SDS011;22964;52.272;13.356;2023-05-10T05:29:31;5.82;;;2.60;;
37051;SDS011;22964;52.272;13.356;2023-05-10T05:31:57;6.25;;;2.70;;
37051;SDS011;22964;52.272;13.356;2023-05-10T05:34:22;7.25;;;2.60;;
37051;SDS011;22964;52.272;13.356;2023-05-10T05:36:49;7.28;;;2.33;;
37051;SDS011;22964;52.272;13.356;2023-05-10T05:39:16;3.47;;;2.40;;
37051;SDS011;22964;52.272;13.356;2023-05-10T05:41:41;4.25;;;2.72;;
37051;SDS011;22964;52.272;13.356;2023-05-10T05:44:07;4.10;;;2.17;;
37051;SDS011;22964;52.272;13.356;2023-05-10T05:46:33;4.35;;;2.42;;
37051;SDS011;22964;52.272;13.356;2023-05-10T05:48:59;7.30;;;2.33;;
37051;SDS011;22964;52.272;13.356;2023-05-10T05:51:24;7.68;;;2.60;;
37051;SDS011;22964;52.272;13.356;2023-05-10T05:53:50;6.53;;;2.47;;
37051;SDS011;22964;52.272;13.356;2023-05-10T05:56:16;5.30;;;2.53;;
37051;SDS011;22964;52.272;13.356;2023-05-10T05:58:49;3.50;;;2.40;;
37051;SDS011;22964;52.272;13.356;2023-05-10T06:01:15;3.85;;;2.40;;
37051;SDS011;22964;52.272;13.356;2023-05-10T06:03:41;4.80;;;2.25;;
37051;SDS011;22964;52.272;13.356;2023-05-10T06:06:07;4.60;;;2.30;;
37051;SDS011;22964;52.272;13.356;2023-05-10T06:08:33;5.28;;;2.50;;
37051;SDS011;22964;52.272;13.356;2023-05-10T06:11:00;7.78;;;2.60;;
37051;SDS011;22964;52.272;13.356;2023-05-10T06:13:26;4.97;;;2.92;;
37051;SDS011;22964;52.272;13.356;2023-05-10T06:15:57;3.58;;;2.22;;
37051;SDS011;22964;52.272;13.356;2023-05-10T06:18:23;5.82;;;2.00;;
37051;SDS011;22964;52.272;13.356;2023-05-10T06:20:49;3.95;;;2.05;;
37051;SDS011;22964;52.272;13.356;2023-05-10T06:23:15;3.55;;;1.90;;
37051;SDS011;22964;52.272;13.356;2023-05-10T06:25:41;4.80;;;2.03;;
37051;SDS011;22964;52.272;13.356;2023-05-10T06:28:07;4.63;;;2.00;;
37051;SDS011;22964;52.272;13.356;2023-05-10T06:30:33;2.67;;;1.90;;
37051;SDS011;22964;52.272;13.356;2023-05-10T06:32:58;2.85;;;1.90;;
37051;SDS011;22964;52.272;13.356;2023-05-10T06:35:24;4.18;;;1.83;;
37051;SDS011;22964;52.272;13.356;2023-05-10T06:37:50;2.63;;;1.92;;
37051;SDS011;22964;52.272;13.356;2023-05-10T06:40:16;3.50;;;2.15;;
37051;SDS011;22964;52.272;13.356;2023-05-10T06:42:42;3.25;;;1.98;;
37051;SDS011;22964;52.272;13.356;2023-05-10T06:45:10;4.28;;;2.20;;
37051;SDS011;22964;52.272;13.356;2023-05-10T06:47:36;4.43;;;2.03;;
37051;SDS011;22964;52.272;13.356;2023-05-10T06:50:02;2.70;;;1.88;;
37051;SDS011;22964;52.272;13.356;2023-05-10T06:52:28;3.15;;;1.77;;
37051;SDS011;22964;52.272;13.356;2023-05-10T06:54:54;3.55;;;1.90;;
37051;SDS011;22964;52.272;13.356;2023-05-10T06:57:19;2.53;;;1.88;;
37051;SDS011;22964;52.272;13.356;2023-05-10T06:59:45;4.15;;;1.90;;
37051;SDS011;22964;52.272;13.356;2023-05-10T07:02:11;3.28;;;1.80;;
37051;SDS011;22964;52.272;13.356;2023-05-10T07:04:37;3.35;;;1.73;;
37051;SDS011;22964;52.272;13.356;2023-05-10T07:07:02;3.40;;;1.90;;
37051;SDS011;22964;52.272;13.356;2023-05-10T07:09:28;2.90;;;2.03;;
37051;SDS011;22964;52.272;13.356;2023-05-10T07:11:55;2.65;;;1.70;;
37051;SDS011;22964;52.272;13.356;2023-05-10T07:14:22;2.72;;;1.70;;
37051;SDS011;22964;52.272;13.356;2023-05-10T07:16:48;3.50;;;2.10;;
37051;SDS011;22964;52.272;13.356;2023-05-10T07:19:14;2.83;;;1.73;;
37051;SDS011;22964;52.272;13.356;2023-05-10T07:21:40;3.78;;;1.88;;
37051;SDS011;22964;52.272;13.356;2023-05-10T07:24:08;2.83;;;1.80;;
37051;SDS011;22964;52.272;13.356;2023-05-10T07:26:34;3.90;;;1.85;;
37051;SDS011;22964;52.272;13.356;2023-05-10T07:28:59;3.05;;;1.75;;
37051;SDS011;22964;52.272;13.356;2023-05-10T07:31:26;2.47;;;1.70;;
37051;SDS011;22964;52.272;13.356;2023-05-10T07:33:52;2.58;;;1.65;;
37051;SDS011;22964;52.272;13.356;2023-05-10T07:36:17;2.65;;;1.50;;
37051;SDS011;22964;52.272;13.356;2023-05-10T07:38:43;4.15;;;1.85;;
37051;SDS011;22964;52.272;13.356;2023-05-10T07:41:11;4.03;;;1.70;;
37051;SDS011;22964;52.272;13.356;2023-05-10T07:43:37;2.47;;;1.75;;
37051;SDS011;22964;52.272;13.356;2023-05-10T07:46:03;2.08;;;1.55;;
37051;SDS011;22964;52.272;13.356;2023-05-10T07:48:28;3.28;;;1.92;;
37051;SDS011;22964;52.272;13.356;2023-05-10T07:50:54;3.70;;;1.52;;
37051;SDS011;22964;52.272;13.356;2023-05-10T07:53:20;2.80;;;1.75;;
37051;SDS011;22964;52.272;13.356;2023-05-10T07:55:58;2.75;;;1.67;;
37051;SDS011;22964;52.272;13.356;2023-05-10T07:58:24;2.50;;;1.60;;
37051;SDS011;22964;52.272;13.356;2023-05-10T08:00:50;3.63;;;1.70;;
37051;SDS011;22964;52.272;13.356;2023-05-10T08:03:15;2.70;;;1.38;;
37051;SDS011;22964;52.272;13.356;2023-05-10T08:05:41;4.03;;;1.70;;
37051;SDS011;22964;52.272;13.356;2023-05-10T08:08:07;3.33;;;1.95;;
37051;SDS011;22964;52.272;13.356;2023-05-10T08:10:33;3.78;;;1.80;;
37051;SDS011;22964;52.272;13.356;2023-05-10T08:12:59;4.60;;;1.88;;
37051;SDS011;22964;52.272;13.356;2023-05-10T08:15:24;3.60;;;1.80;;
37051;SDS011;22964;52.272;13.356;2023-05-10T08:17:53;4.20;;;1.63;;
37051;SDS011;22964;52.272;13.356;2023-05-10T08:20:19;2.25;;;1.60;;
37051;SDS011;22964;52.272;13.356;2023-05-10T08:22:45;2.80;;;1.60;;
37051;SDS011;22964;52.272;13.356;2023-05-10T08:25:11;2.60;;;1.50;;
37051;SDS011;22964;52.272;13.356;2023-05-10T08:27:37;2.70;;;1.60;;
37051;SDS011;22964;52.272;13.356;2023-05-10T08:30:03;3.05;;;1.77;;
37051;SDS011;22964;52.272;13.356;2023-05-10T08:32:29;4.63;;;1.60;;
37051;SDS011;22964;52.272;13.356;2023-05-10T08:34:55;3.38;;;1.95;;
37051;SDS011;22964;52.272;13.356;2023-05-10T08:37:22;2.22;;;1.60;;
37051;SDS011;22964;52.272;13.356;2023-05-10T08:39:48;2.55;;;1.65;;
37051;SDS011;22964;52.272;13.356;2023-05-10T08:42:15;4.88;;;1.73;;
37051;SDS011;22964;52.272;13.356;2023-05-10T08:44:45;6.25;;;1.70;;
37051;SDS011;22964;52.272;13.356;2023-05-10T08:47:13;3.30;;;1.70;;
37051;SDS011;22964;52.272;13.356;2023-05-10T08:49:41;2.33;;;1.50;;
37051;SDS011;22964;52.272;13.356;2023-05-10T08:52:08;3.78;;;1.67;;
37051;SDS011;22964;52.272;13.356;2023-05-10T08:54:38;2.60;;;1.70;;
37051;SDS011;22964;52.272;13.356;2023-05-10T08:57:04;2.60;;;1.75;;
37051;SDS011;22964;52.272;13.356;2023-05-10T08:59:30;2.97;;;1.70;;
37051;SDS011;22964;52.272;13.356;2023-05-10T09:01:57;3.53;;;1.70;;
37051;SDS011;22964;52.272;13.356;2023-05-10T09:04:24;3.35;;;1.52;;
37051;SDS011;22964;52.272;13.356;2023-05-10T09:06:50;4.20;;;1.60;;
37051;SDS011;22964;52.272;13.356;2023-05-10T09:09:16;2.90;;;1.70;;
37051;SDS011;22964;52.272;13.356;2023-05-10T09:11:43;2.35;;;1.55;;
37051;SDS011;22964;52.272;13.356;2023-05-10T09:14:09;3.20;;;1.70;;
37051;SDS011;22964;52.272;13.356;2023-05-10T09:16:35;2.63;;;1.60;;
37051;SDS011;22964;52.272;13.356;2023-05-10T09:19:01;2.88;;;1.60;;
37051;SDS011;22964;52.272;13.356;2023-05-10T09:21:27;3.78;;;1.50;;
37051;SDS011;22964;52.272;13.356;2023-05-10T09:23:53;1.98;;;1.40;;
37051;SDS011;22964;52.272;13.356;2023-05-10T09:26:23;3.42;;;1.55;;
37051;SDS011;22964;52.272;13.356;2023-05-10T09:28:50;3.88;;;1.50;;
37051;SDS011;22964;52.272;13.356;2023-05-10T09:31:15;1.92;;;1.33;;
37051;SDS011;22964;52.272;13.356;2023-05-10T09:33:44;3.17;;;1.45;;
37051;SDS011;22964;52.272;13.356;2023-05-10T09:36:11;2.78;;;1.58;;
37051;SDS011;22964;52.272;13.356;2023-05-10T09:39:11;3.30;;;1.77;;
37051;SDS011;22964;52.272;13.356;2023-05-10T09:43:55;1.50;;;1.20;;
37051;SDS011;22964;52.272;13.356;2023-05-10T09:46:21;3.35;;;1.40;;
37051;SDS011;22964;52.272;13.356;2023-05-10T09:48:47;3.55;;;1.50;;
37051;SDS011;22964;52.272;13.356;2023-05-10T09:51:25;2.58;;;1.58;;
37051;SDS011;22964;52.272;13.356;2023-05-10T09:54:11;3.05;;;1.50;;
37051;SDS011;22964;52.272;13.356;2023-05-10T09:56:39;2.67;;;1.48;;
37051;SDS011;22964;52.272;13.356;2023-05-10T09:59:06;2.28;;;1.50;;
37051;SDS011;22964;52.272;13.356;2023-05-10T10:01:34;3.92;;;1.50;;
37051;SDS011;22964;52.272;13.356;2023-05-10T10:04:06;2.88;;;1.60;;
37051;SDS011;22964;52.272;13.356;2023-05-10T10:06:35;2.38;;;1.55;;
37051;SDS011;22964;52.272;13.356;2023-05-10T10:09:04;1.77;;;1.20;;
37051;SDS011;22964;52.272;13.356;2023-05-10T10:11:34;2.95;;;1.52;;
37051;SDS011;22964;52.272;13.356;2023-05-10T10:14:01;3.78;;;1.60;;
37051;SDS011;22964;52.272;13.356;2023-05-10T10:16:28;2.53;;;1.45;;
37051;SDS011;22964;52.272;13.356;2023-05-10T10:18:55;2.40;;;1.73;;
37051;SDS011;22964;52.272;13.356;2023-05-10T10:21:22;1.98;;;1.17;;
37051;SDS011;22964;52.272;13.356;2023-05-10T10:23:48;3.33;;;1.52;;
37051;SDS011;22964;52.272;13.356;2023-05-10T10:26:14;3.25;;;1.60;;
37051;SDS011;22964;52.272;13.356;2023-05-10T10:31:39;1.95;;;1.45;;
37051;SDS011;22964;52.272;13.356;2023-05-10T10:34:10;1.70;;;1.30;;
37051;SDS011;22964;52.272;13.356;2023-05-10T10:36:53;4.35;;;1.33;;
37051;SDS011;22964;52.272;13.356;2023-05-10T10:39:21;3.38;;;1.73;;
37051;SDS011;22964;52.272;13.356;2023-05-10T10:41:52;2.35;;;1.52;;
37051;SDS011;22964;52.272;13.356;2023-05-10T10:49:26;4.85;;;1.60;;
37051;SDS011;22964;52.272;13.356;2023-05-10T10:55:07;1.67;;;1.30;;
37051;SDS011;22964;52.272;13.356;2023-05-10T10:57:48;2.33;;;1.48;;
37051;SDS011;22964;52.272;13.356;2023-05-10T11:00:31;2.47;;;1.40;;
37051;SDS011;22964;52.272;13.356;2023-05-10T11:03:09;7.45;;;1.50;;
37051;SDS011;22964;52.272;13.356;2023-05-10T11:08:25;2.22;;;1.60;;
37051;SDS011;22964;52.272;13.356;2023-05-10T11:13:40;2.85;;;1.27;;
37051;SDS011;22964;52.272;13.356;2023-05-10T11:16:14;1.73;;;1.40;;
37051;SDS011;22964;52.272;13.356;2023-05-10T11:18:52;4.10;;;1.70;;
37051;SDS011;22964;52.272;13.356;2023-05-10T11:21:24;1.92;;;1.40;;
37051;SDS011;22964;52.272;13.356;2023-05-10T11:26:21;2.35;;;1.38;;
37051;SDS011;22964;52.272;13.356;2023-05-10T11:28:50;2.10;;;1.50;;
37051;SDS011;22964;52.272;13.356;2023-05-10T11:31:20;2.80;;;1.50;;
37051;SDS011;22964;52.272;13.356;2023-05-10T11:33:47;3.85;;;1.50;;
37051;SDS011;22964;52.272;13.356;2023-05-10T11:36:18;2.10;;;1.40;;
37051;SDS011;22964;52.272;13.356;2023-05-10T11:38:45;1.70;;;1.25;;
37051;SDS011;22964;52.272;13.356;2023-05-10T11:41:12;2.13;;;1.30;;
37051;SDS011;22964;52.272;13.356;2023-05-10T11:43:38;1.90;;;1.40;;
37051;SDS011;22964;52.272;13.356;2023-05-10T11:46:05;2.83;;;1.50;;
37051;SDS011;22964;52.272;13.356;2023-05-10T11:48:32;3.22;;;1.55;;
37051;SDS011;22964;52.272;13.356;2023-05-10T11:50:58;2.75;;;1.70;;
37051;SDS011;22964;52.272;13.356;2023-05-10T11:53:27;2.33;;;1.40;;
37051;SDS011;22964;52.272;13.356;2023-05-10T11:56:06;2.20;;;1.42;;
37051;SDS011;22964;52.272;13.356;2023-05-10T11:58:35;2.25;;;1.35;;
37051;SDS011;22964;52.272;13.356;2023-05-10T12:01:02;5.63;;;1.60;;
37051;SDS011;22964;52.272;13.356;2023-05-10T12:03:30;3.55;;;1.50;;
37051;SDS011;22964;52.272;13.356;2023-05-10T12:05:56;2.67;;;1.50;;
37051;SDS011;22964;52.272;13.356;2023-05-10T12:08:23;2.70;;;1.42;;
37051;SDS011;22964;52.272;13.356;2023-05-10T12:10:50;3.28;;;1.50;;
37051;SDS011;22964;52.272;13.356;2023-05-10T12:13:17;5.30;;;1.50;;
37051;SDS011;22964;52.272;13.356;2023-05-10T12:15:45;2.08;;;1.40;;
37051;SDS011;22964;52.272;13.356;2023-05-10T12:18:14;2.58;;;1.40;;
37051;SDS011;22964;52.272;13.356;2023-05-10T12:20:47;5.85;;;1.52;;
37051;SDS011;22964;52.272;13.356;2023-05-10T12:23:13;1.80;;;1.20;;
37051;SDS011;22964;52.272;13.356;2023-05-10T12:25:39;2.50;;;1.33;;
37051;SDS011;22964;52.272;13.356;2023-05-10T12:28:06;2.53;;;1.50;;
37051;SDS011;22964;52.272;13.356;2023-05-10T12:30:34;5.50;;;1.50;;
37051;SDS011;22964;52.272;13.356;2023-05-10T12:33:10;2.00;;;1.50;;
37051;SDS011;22964;52.272;13.356;2023-05-10T12:36:11;3.17;;;1.40;;
37051;SDS011;22964;52.272;13.356;2023-05-10T12:38:34;1.63;;;1.25;;
37051;SDS011;22964;52.272;13.356;2023-05-10T12:41:03;2.08;;;1.48;;
37051;SDS011;22964;52.272;13.356;2023-05-10T12:43:31;2.45;;;1.50;;
37051;SDS011;22964;52.272;13.356;2023-05-10T12:45:58;2.95;;;1.58;;
37051;SDS011;22964;52.272;13.356;2023-05-10T12:48:24;18.35;;;2.28;;
37051;SDS011;22964;52.272;13.356;2023-05-10T12:50:50;2.30;;;1.35;;
37051;SDS011;22964;52.272;13.356;2023-05-10T12:53:16;3.95;;;1.48;;
37051;SDS011;22964;52.272;13.356;2023-05-10T12:55:42;1.77;;;1.33;;
37051;SDS011;22964;52.272;13.356;2023-05-10T12:58:09;1.90;;;1.40;;
37051;SDS011;22964;52.272;13.356;2023-05-10T13:00:35;1.92;;;1.30;;
37051;SDS011;22964;52.272;13.356;2023-05-10T13:03:03;2.55;;;1.40;;
37051;SDS011;22964;52.272;13.356;2023-05-10T13:05:30;3.20;;;1.38;;
37051;SDS011;22964;52.272;13.356;2023-05-10T13:07:59;2.08;;;1.30;;
37051;SDS011;22964;52.272;13.356;2023-05-10T13:10:24;2.10;;;1.38;;
37051;SDS011;22964;52.272;13.356;2023-05-10T13:12:50;3.65;;;1.40;;
37051;SDS011;22964;52.272;13.356;2023-05-10T13:15:16;1.92;;;1.40;;
37051;SDS011;22964;52.272;13.356;2023-05-10T13:17:42;2.10;;;1.35;;
37051;SDS011;22964;52.272;13.356;2023-05-10T13:20:08;2.30;;;1.40;;
37051;SDS011;22964;52.272;13.356;2023-05-10T13:22:35;3.97;;;1.50;;
37051;SDS011;22964;52.272;13.356;2023-05-10T13:25:01;2.63;;;1.30;;
37051;SDS011;22964;52.272;13.356;2023-05-10T13:27:27;2.83;;;1.50;;
37051;SDS011;22964;52.272;13.356;2023-05-10T13:29:53;3.17;;;1.50;;
37051;SDS011;22964;52.272;13.356;2023-05-10T13:32:20;2.13;;;1.58;;
37051;SDS011;22964;52.272;13.356;2023-05-10T13:34:46;2.22;;;1.58;;
37051;SDS011;22964;52.272;13.356;2023-05-10T13:37:12;2.78;;;1.52;;
37051;SDS011;22964;52.272;13.356;2023-05-10T13:39:37;3.47;;;1.48;;
37051;SDS011;22964;52.272;13.356;2023-05-10T13:42:03;2.40;;;1.40;;
37051;SDS011;22964;52.272;13.356;2023-05-10T13:44:29;2.20;;;1.45;;
37051;SDS011;22964;52.272;13.356;2023-05-10T13:46:56;2.28;;;1.40;;
37051;SDS011;22964;52.272;13.356;2023-05-10T13:49:22;3.80;;;1.45;;
37051;SDS011;22964;52.272;13.356;2023-05-10T13:51:47;2.33;;;1.60;;
37051;SDS011;22964;52.272;13.356;2023-05-10T13:54:13;2.03;;;1.23;;
37051;SDS011;22964;52.272;13.356;2023-05-10T13:56:39;2.03;;;1.40;;
37051;SDS011;22964;52.272;13.356;2023-05-10T13:59:07;1.83;;;1.35;;
37051;SDS011;22964;52.272;13.356;2023-05-10T14:01:33;2.25;;;1.30;;
37051;SDS011;22964;52.272;13.356;2023-05-10T14:03:59;2.80;;;1.60;;
37051;SDS011;22964;52.272;13.356;2023-05-10T14:06:25;2.35;;;1.50;;
37051;SDS011;22964;52.272;13.356;2023-05-10T14:08:52;2.35;;;1.40;;
37051;SDS011;22964;52.272;13.356;2023-05-10T14:11:19;1.83;;;1.38;;
37051;SDS011;22964;52.272;13.356;2023-05-10T14:13:45;2.28;;;1.58;;
37051;SDS011;22964;52.272;13.356;2023-05-10T14:16:10;2.55;;;1.48;;
37051;SDS011;22964;52.272;13.356;2023-05-10T14:18:36;3.00;;;1.42;;
37051;SDS011;22964;52.272;13.356;2023-05-10T14:21:03;2.50;;;1.60;;
37051;SDS011;22964;52.272;13.356;2023-05-10T14:23:29;2.80;;;1.55;;
37051;SDS011;22964;52.272;13.356;2023-05-10T14:25:55;2.50;;;1.60;;
37051;SDS011;22964;52.272;13.356;2023-05-10T14:28:21;1.92;;;1.50;;
37051;SDS011;22964;52.272;13.356;2023-05-10T14:30:48;2.85;;;1.45;;
37051;SDS011;22964;52.272;13.356;2023-05-10T14:33:14;3.58;;;1.80;;
37051;SDS011;22964;52.272;13.356;2023-05-10T14:35:41;2.67;;;1.52;;
37051;SDS011;22964;52.272;13.356;2023-05-10T14:38:07;3.42;;;1.48;;
37051;SDS011;22964;52.272;13.356;2023-05-10T14:40:32;3.25;;;1.42;;
37051;SDS011;22964;52.272;13.356;2023-05-10T14:42:58;2.53;;;1.60;;
37051;SDS011;22964;52.272;13.356;2023-05-10T14:45:24;2.20;;;1.48;;
37051;SDS011;22964;52.272;13.356;2023-05-10T14:47:49;2.38;;;1.63;;
37051;SDS011;22964;52.272;13.356;2023-05-10T14:50:15;3.83;;;1.65;;
37051;SDS011;22964;52.272;13.356;2023-05-10T14:52:44;2.78;;;1.52;;
37051;SDS011;22964;52.272;13.356;2023-05-10T14:55:10;3.60;;;1.55;;
37051;SDS011;22964;52.272;13.356;2023-05-10T14:57:36;2.72;;;1.60;;
37051;SDS011;22964;52.272;13.356;2023-05-10T15:00:02;2.00;;;1.65;;
37051;SDS011;22964;52.272;13.356;2023-05-10T15:02:28;3.65;;;1.48;;
37051;SDS011;22964;52.272;13.356;2023-05-10T15:04:55;3.30;;;1.60;;
37051;SDS011;22964;52.272;13.356;2023-05-10T15:07:22;4.45;;;1.58;;
37051;SDS011;22964;52.272;13.356;2023-05-10T15:09:49;3.63;;;1.65;;
37051;SDS011;22964;52.272;13.356;2023-05-10T15:12:16;1.92;;;1.55;;
37051;SDS011;22964;52.272;13.356;2023-05-10T15:14:42;3.65;;;2.08;;
37051;SDS011;22964;52.272;13.356;2023-05-10T15:17:08;4.38;;;1.70;;